»·PEaware :: UPS1779 KPDX-KRNO

UPS1779 :: KPDX-KRNO

FLIGHT INFORMATION

Flight Status: Arrived
Operator:
United Parcel Service
More flights by this operator :: More flights under this callsign
Pilot: Andrew C. (28419)
Aircraft: BOEING 757-200
(B752)
More flights by this aircraft type
Origin: KPDX Portland Intl
United States
Destination: KRNO Reno/Tahoe Intl
United States
More flights between these airports :: More routes between these airports
Route: +CASCD2 PAWLI BAARB J5 HARTT HARTT1
File this flight plan on PilotEdge
Remarks: RMK / SIMBRIEF
Altitude:
(Current/Filed)
37,000ft
Speed:
(Current/Filed)
453kts
Departed: 20-Jul-20 06:03 PM
Arrived: 20-Jul-20 07:06 PM
Distance/Time
Traveled:
385nm/1:03
Distance/Time
To Go:
Arrived

Flight Plot

Page will automatically refresh every two minutes.


Map Options




Map Legend


Flown Route
Filed Route
Departure Airport
Arrival Airport
Navaid (VOR, NDB)
Fix

Horizontal Profiles

Position Reports

Time Latitude Longitude Heading Altitude Ground
Speed
20-Jul-20 17:40 45.584147 -122.608957 135 32ft 0kts
20-Jul-20 17:41 45.584147 -122.608957 135 32ft 0kts
20-Jul-20 17:42 45.584147 -122.608957 135 32ft 0kts
20-Jul-20 17:43 45.584147 -122.608957 135 32ft 0kts
20-Jul-20 17:44 45.584147 -122.608957 135 32ft 0kts
20-Jul-20 17:45 45.584147 -122.608957 135 32ft 0kts
20-Jul-20 17:46 45.584147 -122.608957 135 32ft 0kts
20-Jul-20 17:47 45.584147 -122.608957 135 32ft 0kts
20-Jul-20 17:48 45.584147 -122.608957 135 32ft 0kts
20-Jul-20 17:49 45.584147 -122.608957 135 32ft 0kts
20-Jul-20 17:50 45.584147 -122.608958 135 32ft 0kts
20-Jul-20 17:51 45.584147 -122.608958 135 32ft 0kts
20-Jul-20 17:52 45.584147 -122.608958 135 32ft 0kts
20-Jul-20 17:53 45.584443 -122.609474 106 32ft 2kts
20-Jul-20 17:54 45.584319 -122.610169 42 32ft 1kts
20-Jul-20 17:55 45.584297 -122.610198 44 32ft 0kts
20-Jul-20 17:56 45.584890 -122.609398 44 32ft 9kts
20-Jul-20 17:57 45.586376 -122.606992 90 33ft 11kts
20-Jul-20 17:58 45.585897 -122.600939 119 33ft 18kts
20-Jul-20 17:59 45.583367 -122.594466 119 32ft 17kts
20-Jul-20 18:00 45.581062 -122.588566 119 32ft 16kts
20-Jul-20 18:01 45.580604 -122.584338 323 32ft 7kts
20-Jul-20 18:02 45.592383 -122.614536 300 406ft 172kts
20-Jul-20 18:03 45.620566 -122.681149 300 2269ft 222kts
20-Jul-20 18:04 45.654835 -122.764719 299 4858ft 257kts
20-Jul-20 18:05 45.662952 -122.863016 254 7911ft 274kts
20-Jul-20 18:06 45.606593 -122.922210 168 10333ft 314kts
20-Jul-20 18:07 45.521534 -122.860586 133 12360ft 365kts
20-Jul-20 18:08 45.450584 -122.750888 132 15264ft 383kts
20-Jul-20 18:09 45.377138 -122.636786 131 17928ft 400kts
20-Jul-20 18:10 45.300361 -122.517922 131 20435ft 416kts
20-Jul-20 18:11 45.220185 -122.394341 131 22737ft 430kts
20-Jul-20 18:12 45.137663 -122.267724 132 24826ft 444kts
20-Jul-20 18:13 45.047389 -122.145763 150 26725ft 455kts
20-Jul-20 18:14 44.932350 -122.065558 154 28454ft 464kts
20-Jul-20 18:15 44.814464 -121.986613 155 29982ft 474kts
20-Jul-20 18:16 44.694093 -121.906578 155 31453ft 481kts
20-Jul-20 18:17 44.573763 -121.826955 155 33200ft 476kts
20-Jul-20 18:18 44.454640 -121.748494 155 34872ft 468kts
20-Jul-20 18:19 44.337141 -121.671450 155 36207ft 462kts
20-Jul-20 18:20 44.220408 -121.595254 155 37043ft 460kts
20-Jul-20 18:43 41.499089 -120.247799 163 37109ft 454kts
20-Jul-20 18:45 41.366166 -120.195444 162 33457ft 419kts
20-Jul-20 18:45 41.271540 -120.158239 162 31994ft 431kts
20-Jul-20 18:46 41.156255 -120.113269 164 30207ft 435kts
20-Jul-20 18:47 41.038406 -120.079249 166 28376ft 426kts
20-Jul-20 18:48 40.923052 -120.046138 167 26599ft 417kts
20-Jul-20 18:49 40.811441 -120.013359 165 24898ft 410kts
20-Jul-20 18:50 40.701411 -119.977719 166 23186ft 402kts
20-Jul-20 18:51 40.593422 -119.942940 166 21521ft 394kts
20-Jul-20 18:52 40.487676 -119.908992 166 19893ft 387kts
20-Jul-20 18:53 40.383718 -119.875725 166 18240ft 380kts
20-Jul-20 18:54 40.281394 -119.843084 166 16639ft 373kts
20-Jul-20 18:55 40.181232 -119.811232 166 15132ft 366kts
20-Jul-20 18:56 40.082446 -119.779912 166 13652ft 361kts
20-Jul-20 18:57 39.983071 -119.767948 180 12061ft 349kts
20-Jul-20 18:58 39.895662 -119.768204 180 11277ft 306kts
20-Jul-20 18:59 39.814680 -119.768346 182 9892ft 281kts
20-Jul-20 19:00 39.734952 -119.768013 181 8369ft 273kts
20-Jul-20 19:01 39.665875 -119.765705 183 7675ft 225kts
20-Jul-20 19:02 39.609698 -119.766252 185 6450ft 184kts
20-Jul-20 19:03 39.561616 -119.766750 179 5364ft 148kts
20-Jul-20 19:04 39.523778 -119.766721 181 4660ft 132kts
20-Jul-20 19:05 39.498424 -119.766759 179 4426ft 27kts
20-Jul-20 19:06 39.497447 -119.771166 295 4426ft 8kts
20-Jul-20 19:07 39.502211 -119.771531 1 4426ft 15kts
20-Jul-20 19:08 39.505734 -119.771510 0 4426ft 15kts
20-Jul-20 19:09 39.509100 -119.773070 270 4426ft 11kts
20-Jul-20 19:10 39.509686 -119.773750 330 4426ft 0kts
20-Jul-20 19:11 39.509686 -119.773750 330 4426ft 0kts

Navigation Log

Ident Type
Flight plan parsing failed, navigation log unavailable